createdAt,value
2018-09-06T00:00:49.334Z,29.53
2018-09-06T00:03:23.542Z,32.03
2018-09-06T00:05:57.816Z,30.20
2018-09-06T00:08:32.143Z,31.33
2018-09-06T00:11:06.527Z,30.17
2018-09-06T00:13:40.732Z,30.40
2018-09-06T00:16:15.304Z,29.73
2018-09-06T00:18:51.272Z,29.03
2018-09-06T00:21:25.719Z,28.47
2018-09-06T00:24:00.187Z,30.60
2018-09-06T00:26:34.456Z,29.43
2018-09-06T00:29:08.705Z,27.10
2018-09-06T00:31:43.020Z,28.87
2018-09-06T00:34:17.244Z,29.57
2018-09-06T00:36:51.576Z,26.97
2018-09-06T00:39:25.806Z,30.77
2018-09-06T00:42:00.108Z,30.67
2018-09-06T00:44:34.640Z,28.00
2018-09-06T00:47:08.975Z,29.23
2018-09-06T00:49:43.511Z,28.37
2018-09-06T00:52:17.849Z,35.13
2018-09-06T00:54:52.773Z,35.23
2018-09-06T00:57:27.008Z,34.73
2018-09-06T01:00:01.383Z,35.93
2018-09-06T01:02:35.732Z,31.93
2018-09-06T01:05:10.146Z,32.23
2018-09-06T01:07:44.343Z,33.37
2018-09-06T01:10:19.277Z,33.50
2018-09-06T01:12:53.736Z,32.80
2018-09-06T01:15:28.373Z,33.23
2018-09-06T01:18:02.726Z,30.43
2018-09-06T01:20:37.180Z,30.73
2018-09-06T01:23:11.397Z,32.07
2018-09-06T01:25:47.838Z,31.63
2018-09-06T01:28:22.078Z,37.73
2018-09-06T01:30:56.565Z,32.97
2018-09-06T01:33:31.474Z,40.30
2018-09-06T01:36:11.247Z,36.97
2018-09-06T01:38:45.566Z,42.53
2018-09-06T01:41:19.946Z,36.97
2018-09-06T01:43:54.158Z,39.00
2018-09-06T01:46:28.390Z,39.60
2018-09-06T01:49:02.844Z,36.73
2018-09-06T01:51:37.121Z,39.50
2018-09-06T01:54:11.487Z,34.63
2018-09-06T01:56:45.691Z,35.60
2018-09-06T01:59:19.951Z,40.00
2018-09-06T02:01:54.212Z,41.53
2018-09-06T02:04:28.471Z,39.60
2018-09-06T02:07:02.848Z,39.50
2018-09-06T02:09:37.183Z,40.93
2018-09-06T02:12:11.675Z,39.07
2018-09-06T02:14:45.944Z,38.87
2018-09-06T02:17:20.216Z,38.43
2018-09-06T02:19:54.461Z,39.63
2018-09-06T02:22:28.818Z,37.97
2018-09-06T02:25:03.671Z,45.73
2018-09-06T02:27:38.298Z,37.37
2018-09-06T02:30:12.703Z,40.33
2018-09-06T02:32:46.967Z,40.67
2018-09-06T02:35:21.426Z,38.83
2018-09-06T02:37:55.865Z,42.57
2018-09-06T02:40:36.974Z,41.53
2018-09-06T02:43:12.590Z,38.83
2018-09-06T02:45:47.031Z,43.03
2018-09-06T02:48:25.650Z,36.60
2018-09-06T02:51:05.380Z,40.77
2018-09-06T02:53:39.981Z,42.53
2018-09-06T02:56:15.235Z,39.93
2018-09-06T02:58:49.510Z,41.40
2018-09-06T03:01:23.834Z,43.43
2018-09-06T03:03:58.099Z,42.57
2018-09-06T03:06:32.551Z,41.97
2018-09-06T03:09:07.789Z,42.33
2018-09-06T03:11:47.340Z,35.97
2018-09-06T03:14:21.580Z,44.97
2018-09-06T03:16:55.846Z,48.03
2018-09-06T03:19:30.228Z,45.27
2018-09-06T03:22:04.386Z,46.63
2018-09-06T03:24:38.712Z,43.73
2018-09-06T03:27:13.117Z,43.33
2018-09-06T03:29:47.339Z,47.80
2018-09-06T03:32:21.642Z,51.50
2018-09-06T03:34:55.914Z,47.23
2018-09-06T03:37:30.271Z,46.57
2018-09-06T03:40:05.341Z,43.63
2018-09-06T03:42:39.612Z,43.60
2018-09-06T03:45:13.832Z,45.70
2018-09-06T03:47:48.239Z,44.73
2018-09-06T03:50:22.629Z,45.03
2018-09-06T03:52:56.989Z,47.53
2018-09-06T03:55:31.389Z,46.70
2018-09-06T03:58:05.645Z,50.20
2018-09-06T04:00:39.883Z,49.87
2018-09-06T04:03:14.213Z,46.60
2018-09-06T04:05:48.540Z,43.07
2018-09-06T04:08:22.885Z,40.87
2018-09-06T04:10:57.260Z,40.93
2018-09-06T04:13:31.618Z,39.87
2018-09-06T04:16:06.028Z,40.83
2018-09-06T04:18:40.409Z,40.63
2018-09-06T04:21:14.931Z,40.53
2018-09-06T04:23:49.319Z,38.47
2018-09-06T04:26:23.710Z,42.53
2018-09-06T04:28:57.997Z,44.93
2018-09-06T04:31:32.396Z,38.20
2018-09-06T04:34:06.927Z,42.23
2018-09-06T04:36:41.241Z,39.23
2018-09-06T04:39:15.480Z,39.63
2018-09-06T04:41:51.156Z,43.60
2018-09-06T04:44:25.636Z,40.30
2018-09-06T04:46:59.904Z,36.83
2018-09-06T04:49:34.218Z,42.53
2018-09-06T04:52:08.448Z,45.43
2018-09-06T04:54:42.841Z,44.10
2018-09-06T04:57:17.607Z,42.63
2018-09-06T04:59:52.009Z,43.73
2018-09-06T05:02:26.427Z,43.20
2018-09-06T05:05:00.673Z,42.27
2018-09-06T05:07:34.997Z,41.23
2018-09-06T05:10:09.431Z,41.63
2018-09-06T05:12:43.780Z,44.73
2018-09-06T05:15:18.083Z,39.97
2018-09-06T05:17:52.344Z,39.17
2018-09-06T05:20:26.767Z,40.50
2018-09-06T05:23:01.202Z,46.03
2018-09-06T05:25:35.769Z,45.50
2018-09-06T05:28:10.144Z,42.70
2018-09-06T05:30:44.411Z,45.37
2018-09-06T05:33:18.781Z,46.50
2018-09-06T05:35:53.158Z,45.60
2018-09-06T05:38:27.552Z,47.07
2018-09-06T05:41:01.951Z,44.13
2018-09-06T05:43:36.242Z,44.63
2018-09-06T05:46:10.980Z,46.87
2018-09-06T05:48:45.436Z,43.93
2018-09-06T05:51:19.790Z,47.60
2018-09-06T05:53:55.154Z,42.57
2018-09-06T05:56:29.519Z,42.63
2018-09-06T05:59:03.889Z,44.07
2018-09-06T06:01:38.419Z,42.73
2018-09-06T06:04:12.736Z,41.17
2018-09-06T06:06:47.068Z,41.07
2018-09-06T06:09:21.319Z,38.50
2018-09-06T06:11:55.709Z,39.67
2018-09-06T06:14:29.937Z,37.40
2018-09-06T06:17:04.222Z,40.83
2018-09-06T06:19:39.528Z,38.77
2018-09-06T06:22:14.028Z,39.07
2018-09-06T06:24:48.250Z,41.43
2018-09-06T06:27:22.557Z,45.83
2018-09-06T06:29:56.965Z,37.23
2018-09-06T06:32:31.438Z,40.37
2018-09-06T06:35:05.852Z,37.67
2018-09-06T06:37:40.085Z,37.23
2018-09-06T06:40:14.367Z,43.17
2018-09-06T06:42:48.735Z,40.70
2018-09-06T06:45:23.093Z,36.97
2018-09-06T06:47:57.441Z,36.17
2018-09-06T06:50:31.890Z,37.77
2018-09-06T06:53:06.066Z,36.90
2018-09-06T06:55:40.368Z,36.50
2018-09-06T06:58:14.597Z,35.10
2018-09-06T07:00:49.948Z,36.07
2018-09-06T07:03:24.180Z,38.37
2018-09-06T07:05:58.585Z,34.63
2018-09-06T07:08:33.309Z,34.10
2018-09-06T07:11:07.616Z,35.63
2018-09-06T07:13:41.908Z,38.57
2018-09-06T07:16:16.918Z,34.57
2018-09-06T07:18:51.633Z,37.40
2018-09-06T07:21:26.291Z,38.90
2018-09-06T07:24:00.685Z,37.40
2018-09-06T07:26:35.020Z,34.97
2018-09-06T07:29:09.338Z,31.70
2018-09-06T07:31:43.750Z,31.47
2018-09-06T07:34:18.159Z,34.17
2018-09-06T07:36:52.515Z,33.23
2018-09-06T07:39:26.746Z,32.00
2018-09-06T07:42:01.070Z,32.27
2018-09-06T07:44:35.324Z,27.27
2018-09-06T07:47:09.675Z,30.97
2018-09-06T07:49:44.425Z,31.70
2018-09-06T07:52:18.793Z,26.60
2018-09-06T07:54:53.226Z,28.47
2018-09-06T07:57:28.423Z,28.33
2018-09-06T08:00:02.802Z,27.10
2018-09-06T08:02:37.254Z,26.50
2018-09-06T08:05:12.266Z,25.83
2018-09-06T08:07:46.558Z,27.33
2018-09-06T08:10:20.872Z,25.30
2018-09-06T08:12:55.479Z,23.60
2018-09-06T08:15:29.747Z,28.00
2018-09-06T08:18:04.230Z,24.07
2018-09-06T08:20:38.537Z,29.27
2018-09-06T08:23:13.608Z,30.90
2018-09-06T08:25:48.044Z,24.37
2018-09-06T08:28:22.425Z,24.37
2018-09-06T08:30:56.937Z,27.13
2018-09-06T08:33:31.431Z,24.43
2018-09-06T08:36:05.700Z,24.00
2018-09-06T08:38:40.090Z,23.27
2018-09-06T08:41:14.516Z,23.43
2018-09-06T08:43:48.987Z,23.40
2018-09-06T08:46:23.360Z,23.77
2018-09-06T08:48:57.760Z,21.97
2018-09-06T08:51:32.406Z,23.30
2018-09-06T08:54:08.374Z,23.77
2018-09-06T08:56:42.773Z,24.63
2018-09-06T08:59:17.140Z,23.00
2018-09-06T09:01:51.723Z,24.90
2018-09-06T09:04:26.002Z,22.53
2018-09-06T09:07:00.245Z,21.07
2018-09-06T09:09:34.633Z,23.30
2018-09-06T09:12:09.148Z,22.20
2018-09-06T09:14:43.643Z,21.70
2018-09-06T09:17:18.880Z,21.20
2018-09-06T09:19:53.238Z,20.33
2018-09-06T09:22:27.685Z,20.60
2018-09-06T09:25:01.980Z,20.43
2018-09-06T09:27:36.297Z,21.20
2018-09-06T09:30:10.565Z,20.43
2018-09-06T09:32:45.339Z,20.17
2018-09-06T09:35:19.802Z,20.27
2018-09-06T09:37:54.361Z,18.43
2018-09-06T09:40:28.594Z,19.07
2018-09-06T09:43:02.854Z,19.63
2018-09-06T09:45:37.195Z,19.10
2018-09-06T09:48:11.590Z,20.57
2018-09-06T09:53:19.679Z,18.20
2018-09-06T09:55:53.961Z,19.43
2018-09-06T09:58:28.335Z,18.67
2018-09-06T10:01:02.707Z,17.23
2018-09-06T10:03:42.296Z,19.50
2018-09-06T10:06:22.428Z,19.60
2018-09-06T10:09:02.705Z,17.93
2018-09-06T10:11:37.188Z,22.47
2018-09-06T10:14:11.701Z,24.63
2018-09-06T10:16:46.575Z,16.77
2018-09-06T10:19:21.097Z,15.17
2018-09-06T10:21:55.542Z,14.67
2018-09-06T10:24:29.933Z,13.53
2018-09-06T10:27:04.387Z,13.87
2018-09-06T10:29:38.769Z,12.80
2018-09-06T10:32:13.099Z,12.70
2018-09-06T10:34:47.469Z,13.33
2018-09-06T10:37:22.012Z,14.20
2018-09-06T10:39:56.668Z,12.00
2018-09-06T10:42:31.305Z,11.83
2018-09-06T10:45:05.724Z,11.13
2018-09-06T10:47:40.118Z,11.00
2018-09-06T10:50:14.470Z,11.53
2018-09-06T10:52:48.986Z,11.57
2018-09-06T10:55:23.252Z,11.73
2018-09-06T10:57:57.852Z,13.83
2018-09-06T11:00:32.321Z,11.33
2018-09-06T11:03:08.049Z,11.37
2018-09-06T11:05:42.463Z,10.53
2018-09-06T11:08:16.981Z,9.37
2018-09-06T11:10:51.596Z,9.63
2018-09-06T11:13:25.999Z,9.23
2018-09-06T11:16:00.457Z,8.90
2018-09-06T11:18:34.959Z,9.20
2018-09-06T11:21:09.557Z,9.50
2018-09-06T11:23:43.772Z,10.20
2018-09-06T11:26:18.066Z,9.93
2018-09-06T11:28:52.840Z,8.70
2018-09-06T11:31:27.540Z,9.93
2018-09-06T11:34:02.152Z,9.00
2018-09-06T11:36:36.891Z,9.80
2018-09-06T11:39:11.517Z,10.97
2018-09-06T11:41:45.935Z,10.23
2018-09-06T11:44:20.354Z,10.10
2018-09-06T11:46:54.860Z,10.00
2018-09-06T11:49:29.142Z,9.57
2018-09-06T11:52:03.543Z,10.10
2018-09-06T11:54:37.985Z,9.93
2018-09-06T11:57:12.204Z,8.87
2018-09-06T11:59:46.565Z,9.47
2018-09-06T12:02:20.907Z,13.43
2018-09-06T12:04:56.638Z,11.23
2018-09-06T12:07:31.017Z,11.30
2018-09-06T12:10:05.661Z,11.60
2018-09-06T12:12:40.135Z,9.53
2018-09-06T12:15:14.891Z,10.57
2018-09-06T12:17:49.249Z,10.07
2018-09-06T12:20:23.690Z,12.27
2018-09-06T12:22:58.125Z,10.43
2018-09-06T12:25:32.517Z,10.37
2018-09-06T12:28:06.963Z,10.03
2018-09-06T12:30:41.305Z,9.90
2018-09-06T12:33:15.628Z,11.10
2018-09-06T12:35:51.451Z,10.43
2018-09-06T12:38:25.724Z,10.37
2018-09-06T12:40:59.998Z,11.63
2018-09-06T12:43:34.683Z,9.70
2018-09-06T12:46:08.938Z,9.67
2018-09-06T12:48:43.371Z,9.60
2018-09-06T12:51:17.735Z,12.50
2018-09-06T12:53:52.140Z,8.97
2018-09-06T12:56:26.537Z,9.40
2018-09-06T12:59:00.741Z,9.63
2018-09-06T13:01:36.918Z,10.07
2018-09-06T13:04:11.331Z,9.00
2018-09-06T13:06:45.701Z,9.03
2018-09-06T13:09:20.029Z,9.57
2018-09-06T13:11:54.415Z,9.63
2018-09-06T13:14:28.685Z,9.87
2018-09-06T13:17:02.974Z,8.93
2018-09-06T13:19:37.202Z,9.23
2018-09-06T13:22:11.604Z,8.67
2018-09-06T13:24:46.655Z,9.33
2018-09-06T13:27:21.193Z,8.80
2018-09-06T13:29:55.586Z,7.67
2018-09-06T13:32:29.842Z,6.90
2018-09-06T13:35:04.467Z,7.63
2018-09-06T13:37:38.722Z,7.87
2018-09-06T13:40:13.174Z,7.77
2018-09-06T13:42:47.518Z,8.00
2018-09-06T13:45:21.790Z,7.53
2018-09-06T13:47:56.067Z,7.73
2018-09-06T13:50:30.317Z,7.43
2018-09-06T13:53:04.555Z,7.33
2018-09-06T13:55:38.946Z,7.40
2018-09-06T13:58:13.286Z,7.07
2018-09-06T14:00:47.600Z,7.07
2018-09-06T14:03:21.896Z,7.23
2018-09-06T14:05:56.284Z,6.33
2018-09-06T14:08:30.531Z,6.27
2018-09-06T14:11:04.908Z,5.93
2018-09-06T14:13:39.279Z,6.10
2018-09-06T14:16:13.758Z,9.20
2018-09-06T14:18:48.139Z,12.13
2018-09-06T14:21:23.674Z,9.67
2018-09-06T14:23:58.121Z,9.03
2018-09-06T14:26:32.461Z,9.97
2018-09-06T14:29:06.876Z,9.97
2018-09-06T14:31:41.238Z,9.33
2018-09-06T14:34:15.562Z,9.50
2018-09-06T14:36:49.955Z,10.67
2018-09-06T14:39:24.348Z,9.60
2018-09-06T14:41:58.690Z,10.03
2018-09-06T14:44:33.166Z,8.27
2018-09-06T14:47:07.501Z,9.47
2018-09-06T14:49:41.785Z,10.13
2018-09-06T14:52:16.155Z,10.93
2018-09-06T14:54:50.423Z,9.60
2018-09-06T14:57:24.682Z,8.77
2018-09-06T14:59:58.895Z,8.97
2018-09-06T15:02:33.336Z,12.27
2018-09-06T15:05:07.561Z,9.63
2018-09-06T15:07:41.826Z,10.47
2018-09-06T15:10:16.119Z,7.93
2018-09-06T15:12:50.457Z,9.73
2018-09-06T15:15:24.740Z,8.97
2018-09-06T15:17:59.193Z,9.17
2018-09-06T15:20:34.190Z,7.83
2018-09-06T15:23:08.410Z,7.93
2018-09-06T15:25:42.776Z,9.60
2018-09-06T15:28:17.152Z,9.20
2018-09-06T15:30:51.594Z,8.50
2018-09-06T15:33:25.875Z,8.37
2018-09-06T15:36:00.152Z,8.40
2018-09-06T15:38:34.523Z,8.87
2018-09-06T15:41:08.837Z,8.70
2018-09-06T15:43:43.266Z,7.87
2018-09-06T15:46:17.540Z,8.87
2018-09-06T15:48:51.985Z,9.13
2018-09-06T15:51:26.310Z,7.73
2018-09-06T15:54:00.555Z,7.90
2018-09-06T15:56:34.952Z,9.13
2018-09-06T15:59:09.274Z,11.43
2018-09-06T16:01:43.741Z,8.77
2018-09-06T16:04:18.214Z,8.17
2018-09-06T16:06:52.794Z,8.90
2018-09-06T16:09:27.174Z,9.27
2018-09-06T16:12:01.414Z,7.60
2018-09-06T16:14:35.644Z,9.13
2018-09-06T16:17:09.864Z,7.73
2018-09-06T16:19:44.199Z,8.57
2018-09-06T16:22:18.496Z,11.33
2018-09-06T16:24:52.832Z,10.53
2018-09-06T16:27:27.067Z,14.60
2018-09-06T16:30:01.313Z,12.10
2018-09-06T16:32:35.601Z,10.90
2018-09-06T16:35:09.843Z,9.73
2018-09-06T16:37:44.211Z,11.00
2018-09-06T16:40:18.444Z,9.77
2018-09-06T16:42:52.650Z,11.87
2018-09-06T16:45:26.993Z,10.73
2018-09-06T16:48:01.278Z,9.90
2018-09-06T16:50:36.226Z,9.90
2018-09-06T16:53:10.611Z,7.97
2018-09-06T16:55:45.007Z,5.63
2018-09-06T16:58:19.250Z,7.33
2018-09-06T17:00:53.743Z,7.33
2018-09-06T17:03:27.938Z,6.90
2018-09-06T17:06:02.241Z,4.80
2018-09-06T17:08:36.574Z,3.90
2018-09-06T17:11:10.846Z,6.13
2018-09-06T17:13:45.075Z,3.83
2018-09-06T17:16:22.137Z,5.90
2018-09-06T17:18:56.602Z,3.57
2018-09-06T17:21:31.072Z,4.27
2018-09-06T17:24:05.340Z,4.23
2018-09-06T17:26:39.679Z,5.10
2018-09-06T17:29:13.871Z,6.23
2018-09-06T17:31:48.169Z,6.17
2018-09-06T17:34:22.430Z,5.27
2018-09-06T17:36:56.910Z,4.53
2018-09-06T17:39:31.324Z,4.50
2018-09-06T17:42:05.821Z,4.57
2018-09-06T17:44:40.258Z,4.80
2018-09-06T17:47:14.581Z,5.00
2018-09-06T17:49:49.349Z,6.07
2018-09-06T17:52:23.606Z,6.87
2018-09-06T17:54:58.051Z,5.87
2018-09-06T17:57:32.369Z,5.37
2018-09-06T18:00:06.949Z,8.20
2018-09-06T18:02:41.307Z,6.00
2018-09-06T18:05:15.534Z,6.13
2018-09-06T18:07:50.421Z,7.97
2018-09-06T18:10:24.811Z,6.27
2018-09-06T18:12:59.174Z,7.33
2018-09-06T18:15:33.571Z,6.23
2018-09-06T18:18:08.201Z,7.43
2018-09-06T18:20:42.791Z,5.90
2018-09-06T18:23:17.435Z,8.10
2018-09-06T18:25:51.818Z,5.73
2018-09-06T18:28:29.233Z,8.60
2018-09-06T18:31:03.528Z,7.83
2018-09-06T18:33:37.843Z,6.40
2018-09-06T18:36:12.147Z,7.00
2018-09-06T18:38:47.116Z,7.37
2018-09-06T18:41:21.550Z,7.97
2018-09-06T18:43:55.885Z,7.87
2018-09-06T18:46:30.187Z,5.97
2018-09-06T18:49:04.453Z,7.60
2018-09-06T18:51:38.834Z,5.83
2018-09-06T18:54:13.066Z,6.83
2018-09-06T18:56:47.270Z,6.33
2018-09-06T18:59:21.781Z,6.03
2018-09-06T19:01:56.089Z,5.70
2018-09-06T19:04:30.416Z,7.57
2018-09-06T19:07:04.692Z,7.73
2018-09-06T19:09:38.963Z,6.40
2018-09-06T19:12:13.237Z,7.00
2018-09-06T19:14:47.560Z,7.77
2018-09-06T19:17:21.843Z,6.83
2018-09-06T19:19:56.122Z,7.53
2018-09-06T19:22:30.526Z,12.97
2018-09-06T19:25:04.911Z,14.30
2018-09-06T19:27:39.284Z,17.10
2018-09-06T19:30:13.626Z,16.33
2018-09-06T19:32:47.884Z,14.37
2018-09-06T19:35:22.123Z,18.63
2018-09-06T19:37:56.779Z,18.40
2018-09-06T19:40:32.083Z,17.17
2018-09-06T19:43:06.546Z,14.13
2018-09-06T19:45:40.864Z,19.10
2018-09-06T19:48:15.226Z,17.83
2018-09-06T19:50:49.591Z,16.33
2018-09-06T19:53:24.020Z,17.20
2018-09-06T19:55:58.395Z,20.83
2018-09-06T19:58:32.894Z,17.83
2018-09-06T20:01:07.315Z,16.43
2018-09-06T20:03:41.691Z,17.40
2018-09-06T20:06:15.994Z,16.03
2018-09-06T20:08:50.276Z,13.77
2018-09-06T20:11:24.470Z,13.07
2018-09-06T20:13:58.785Z,13.67
2018-09-06T20:16:32.991Z,12.73
2018-09-06T20:19:07.483Z,14.13
2018-09-06T20:21:41.896Z,15.57
2018-09-06T20:24:16.399Z,15.13
2018-09-06T20:26:50.641Z,15.00
2018-09-06T20:29:25.025Z,16.23
2018-09-06T20:31:59.379Z,14.70
2018-09-06T20:34:33.702Z,11.40
2018-09-06T20:37:08.060Z,19.33
2018-09-06T20:39:42.488Z,17.37
2018-09-06T20:42:17.203Z,19.13
2018-09-06T20:44:52.526Z,22.00
2018-09-06T20:47:26.916Z,24.50
2018-09-06T20:50:01.270Z,20.53
2018-09-06T20:52:35.861Z,20.80
2018-09-06T20:55:10.128Z,21.77
2018-09-06T20:57:44.518Z,21.03
2018-09-06T21:00:19.049Z,17.67
2018-09-06T21:02:53.283Z,22.20
2018-09-06T21:05:27.662Z,18.77
2018-09-06T21:08:02.437Z,17.00
2018-09-06T21:10:36.893Z,21.07
2018-09-06T21:13:11.740Z,20.00
2018-09-06T21:15:46.750Z,20.60
2018-09-06T21:18:21.232Z,21.40
2018-09-06T21:20:55.508Z,22.07
2018-09-06T21:23:30.470Z,23.07
2018-09-06T21:26:04.897Z,21.70
2018-09-06T21:28:39.208Z,19.63
2018-09-06T21:31:13.659Z,20.37
2018-09-06T21:33:48.046Z,20.77
2018-09-06T21:36:22.417Z,22.47
2018-09-06T21:38:57.008Z,20.80
2018-09-06T21:41:31.454Z,25.17
2018-09-06T21:44:06.343Z,21.17
2018-09-06T21:46:41.305Z,20.80
2018-09-06T21:49:15.518Z,24.77
2018-09-06T21:51:50.050Z,21.03
2018-09-06T21:54:24.375Z,21.33
2018-09-06T21:56:58.706Z,20.77
2018-09-06T21:59:33.031Z,23.37
2018-09-06T22:02:10.627Z,24.83
2018-09-06T22:04:44.923Z,21.33
2018-09-06T22:07:19.286Z,21.83
2018-09-06T22:09:53.648Z,20.77
2018-09-06T22:12:27.895Z,19.53
2018-09-06T22:15:03.312Z,20.73
2018-09-06T22:17:37.645Z,21.40
2018-09-06T22:20:12.079Z,22.83
2018-09-06T22:22:46.386Z,19.73
2018-09-06T22:25:20.634Z,18.03
2018-09-06T22:27:54.888Z,20.40
2018-09-06T22:30:29.197Z,20.73
2018-09-06T22:33:03.541Z,21.33
2018-09-06T22:35:37.939Z,22.33
2018-09-06T22:38:12.411Z,22.13
2018-09-06T22:40:46.767Z,22.63
2018-09-06T22:43:21.209Z,26.10
2018-09-06T22:45:55.471Z,31.77
2018-09-06T22:48:30.001Z,28.87
2018-09-06T22:51:04.632Z,30.10
2018-09-06T22:53:39.060Z,35.30
2018-09-06T22:56:45.076Z,38.20
2018-09-06T22:59:19.509Z,38.40
2018-09-06T23:01:53.780Z,36.70
2018-09-06T23:04:28.242Z,35.53
2018-09-06T23:07:02.638Z,35.43
2018-09-06T23:09:37.184Z,35.23
2018-09-06T23:12:11.489Z,31.20
2018-09-06T23:14:45.824Z,29.60
2018-09-06T23:17:20.210Z,28.17
2018-09-06T23:19:54.468Z,28.70
2018-09-06T23:22:28.730Z,27.30
2018-09-06T23:25:03.126Z,27.73
2018-09-06T23:27:37.393Z,27.57
2018-09-06T23:30:11.921Z,24.37
2018-09-06T23:32:46.343Z,26.07
2018-09-06T23:35:20.576Z,26.40
2018-09-06T23:37:54.941Z,23.70
2018-09-06T23:40:32.869Z,28.43
2018-09-06T23:43:07.586Z,25.73
2018-09-06T23:45:42.133Z,27.87
2018-09-06T23:48:16.754Z,30.97
2018-09-06T23:50:51.299Z,28.93
2018-09-06T23:53:26.432Z,30.27
2018-09-06T23:56:00.884Z,29.27
2018-09-06T23:58:35.217Z,32.70
